sensor_id;sensor_type;location;lat;lon;timestamp;pressure;altitude;pressure_sealevel;temperature;humidity
37694;BME280;23531;50.122;8.644;2024-01-15T00:01:27;99418.25;;;0.24;nan
37694;BME280;23531;50.122;8.644;2024-01-15T00:03:28;99416.97;;;0.12;nan
37694;BME280;23531;50.122;8.644;2024-01-15T00:05:31;99417.50;;;-0.01;nan
37694;BME280;23531;50.122;8.644;2024-01-15T00:07:32;99413.88;;;-0.16;nan
37694;BME280;23531;50.122;8.644;2024-01-15T00:09:33;99409.72;;;0.22;nan
37694;BME280;23531;50.122;8.644;2024-01-15T00:11:34;99408.88;;;0.14;nan
37694;BME280;23531;50.122;8.644;2024-01-15T00:13:36;99416.47;;;0.00;nan
37694;BME280;23531;50.122;8.644;2024-01-15T00:15:36;99413.88;;;-0.16;nan
37694;BME280;23531;50.122;8.644;2024-01-15T00:17:38;99407.75;;;-0.41;nan
37694;BME280;23531;50.122;8.644;2024-01-15T00:19:39;99398.81;;;-0.07;nan
37694;BME280;23531;50.122;8.644;2024-01-15T00:21:41;99400.13;;;0.13;nan
37694;BME280;23531;50.122;8.644;2024-01-15T00:23:43;99392.06;;;-0.18;nan
37694;BME280;23531;50.122;8.644;2024-01-15T00:25:46;99402.47;;;-0.57;nan
37694;BME280;23531;50.122;8.644;2024-01-15T00:27:48;99393.72;;;-0.49;nan
37694;BME280;23531;50.122;8.644;2024-01-15T00:29:49;99407.44;;;-0.29;nan
37694;BME280;23531;50.122;8.644;2024-01-15T00:31:52;99388.94;;;-0.21;nan
37694;BME280;23531;50.122;8.644;2024-01-15T00:33:53;99387.47;;;-0.40;nan
37694;BME280;23531;50.122;8.644;2024-01-15T00:35:53;99387.63;;;-0.50;nan
37694;BME280;23531;50.122;8.644;2024-01-15T00:37:56;99388.59;;;-0.75;nan
37694;BME280;23531;50.122;8.644;2024-01-15T00:39:58;99376.06;;;-0.65;nan
37694;BME280;23531;50.122;8.644;2024-01-15T00:41:59;99382.00;;;-0.30;nan
37694;BME280;23531;50.122;8.644;2024-01-15T00:44:01;99371.13;;;-0.35;nan
37694;BME280;23531;50.122;8.644;2024-01-15T00:46:03;99369.78;;;-0.15;nan
37694;BME280;23531;50.122;8.644;2024-01-15T00:48:05;99371.72;;;0.07;nan
37694;BME280;23531;50.122;8.644;2024-01-15T00:50:06;99354.28;;;-0.26;nan
37694;BME280;23531;50.122;8.644;2024-01-15T00:52:08;99360.41;;;-0.34;nan
37694;BME280;23531;50.122;8.644;2024-01-15T00:54:11;99360.81;;;0.02;nan
37694;BME280;23531;50.122;8.644;2024-01-15T00:56:12;99361.47;;;0.12;nan
37694;BME280;23531;50.122;8.644;2024-01-15T00:58:14;99357.19;;;0.11;nan
37694;BME280;23531;50.122;8.644;2024-01-15T01:00:14;99355.03;;;0.07;nan
37694;BME280;23531;50.122;8.644;2024-01-15T01:02:16;99362.78;;;0.16;nan
37694;BME280;23531;50.122;8.644;2024-01-15T01:04:16;99362.47;;;0.03;nan
37694;BME280;23531;50.122;8.644;2024-01-15T01:06:18;99352.53;;;0.21;nan
37694;BME280;23531;50.122;8.644;2024-01-15T01:08:19;99362.09;;;0.30;nan
37694;BME280;23531;50.122;8.644;2024-01-15T01:10:22;99354.06;;;0.47;nan
37694;BME280;23531;50.122;8.644;2024-01-15T01:12:23;99352.13;;;0.41;nan
37694;BME280;23531;50.122;8.644;2024-01-15T01:14:24;99355.44;;;0.43;nan
37694;BME280;23531;50.122;8.644;2024-01-15T01:16:25;99359.53;;;0.53;nan
37694;BME280;23531;50.122;8.644;2024-01-15T01:18:26;99355.59;;;0.41;nan
37694;BME280;23531;50.122;8.644;2024-01-15T01:20:28;99360.03;;;0.80;nan
37694;BME280;23531;50.122;8.644;2024-01-15T01:22:30;99360.84;;;0.49;nan
37694;BME280;23531;50.122;8.644;2024-01-15T01:24:31;99361.56;;;0.35;nan
37694;BME280;23531;50.122;8.644;2024-01-15T01:26:34;99355.50;;;0.65;nan
37694;BME280;23531;50.122;8.644;2024-01-15T01:28:35;99355.06;;;0.46;nan
37694;BME280;23531;50.122;8.644;2024-01-15T01:30:37;99361.59;;;0.27;nan
37694;BME280;23531;50.122;8.644;2024-01-15T01:32:38;99362.44;;;0.19;nan
37694;BME280;23531;50.122;8.644;2024-01-15T01:34:40;99350.88;;;0.59;nan
37694;BME280;23531;50.122;8.644;2024-01-15T01:36:43;99351.19;;;0.95;nan
37694;BME280;23531;50.122;8.644;2024-01-15T01:38:44;99347.78;;;0.56;nan
37694;BME280;23531;50.122;8.644;2024-01-15T01:40:46;99349.72;;;0.62;nan
37694;BME280;23531;50.122;8.644;2024-01-15T01:42:49;99345.38;;;0.69;nan
37694;BME280;23531;50.122;8.644;2024-01-15T01:44:50;99342.78;;;0.61;nan
37694;BME280;23531;50.122;8.644;2024-01-15T01:46:51;99353.91;;;0.56;nan
37694;BME280;23531;50.122;8.644;2024-01-15T01:48:53;99347.59;;;0.57;nan
37694;BME280;23531;50.122;8.644;2024-01-15T01:50:59;99339.69;;;0.80;nan
37694;BME280;23531;50.122;8.644;2024-01-15T01:53:01;99338.03;;;0.56;nan
37694;BME280;23531;50.122;8.644;2024-01-15T01:55:06;99330.31;;;0.78;nan
37694;BME280;23531;50.122;8.644;2024-01-15T01:57:08;99330.44;;;0.84;nan
37694;BME280;23531;50.122;8.644;2024-01-15T01:59:11;99323.28;;;0.62;nan
37694;BME280;23531;50.122;8.644;2024-01-15T02:01:12;99340.09;;;1.00;nan
37694;BME280;23531;50.122;8.644;2024-01-15T02:03:14;99337.53;;;0.84;nan
37694;BME280;23531;50.122;8.644;2024-01-15T02:05:18;99332.13;;;0.38;nan
37694;BME280;23531;50.122;8.644;2024-01-15T02:07:20;99330.88;;;0.57;nan
37694;BME280;23531;50.122;8.644;2024-01-15T02:09:22;99327.94;;;0.83;nan
37694;BME280;23531;50.122;8.644;2024-01-15T02:11:23;99328.91;;;0.90;nan
37694;BME280;23531;50.122;8.644;2024-01-15T02:13:25;99325.63;;;1.11;nan
37694;BME280;23531;50.122;8.644;2024-01-15T02:15:29;99330.09;;;0.87;nan
37694;BME280;23531;50.122;8.644;2024-01-15T02:17:30;99334.19;;;0.59;nan
37694;BME280;23531;50.122;8.644;2024-01-15T02:19:31;99336.00;;;0.66;nan
37694;BME280;23531;50.122;8.644;2024-01-15T02:21:33;99332.94;;;1.08;nan
37694;BME280;23531;50.122;8.644;2024-01-15T02:23:36;99322.03;;;1.03;nan
37694;BME280;23531;50.122;8.644;2024-01-15T02:25:38;99326.47;;;1.11;nan
37694;BME280;23531;50.122;8.644;2024-01-15T02:27:41;99325.47;;;0.11;nan
37694;BME280;23531;50.122;8.644;2024-01-15T02:29:44;99324.31;;;0.53;nan
37694;BME280;23531;50.122;8.644;2024-01-15T02:31:45;99337.31;;;0.31;nan
37694;BME280;23531;50.122;8.644;2024-01-15T02:33:46;99322.56;;;0.37;nan
37694;BME280;23531;50.122;8.644;2024-01-15T02:35:48;99329.81;;;0.35;nan
37694;BME280;23531;50.122;8.644;2024-01-15T02:37:50;99333.03;;;0.22;nan
37694;BME280;23531;50.122;8.644;2024-01-15T02:39:52;99328.91;;;0.59;nan
37694;BME280;23531;50.122;8.644;2024-01-15T02:41:53;99342.75;;;0.69;nan
37694;BME280;23531;50.122;8.644;2024-01-15T02:43:56;99350.16;;;0.73;nan
37694;BME280;23531;50.122;8.644;2024-01-15T02:45:57;99336.78;;;0.75;nan
37694;BME280;23531;50.122;8.644;2024-01-15T02:47:59;99333.41;;;0.81;nan
37694;BME280;23531;50.122;8.644;2024-01-15T02:50:00;99333.00;;;0.92;nan
37694;BME280;23531;50.122;8.644;2024-01-15T02:52:02;99328.78;;;0.83;nan
37694;BME280;23531;50.122;8.644;2024-01-15T02:54:03;99335.13;;;0.74;nan
37694;BME280;23531;50.122;8.644;2024-01-15T02:56:06;99335.78;;;0.68;nan
37694;BME280;23531;50.122;8.644;2024-01-15T02:58:08;99332.31;;;0.76;nan
37694;BME280;23531;50.122;8.644;2024-01-15T03:00:10;99329.00;;;0.73;nan
37694;BME280;23531;50.122;8.644;2024-01-15T03:02:12;99324.75;;;0.95;nan
37694;BME280;23531;50.122;8.644;2024-01-15T03:04:13;99333.00;;;0.92;nan
37694;BME280;23531;50.122;8.644;2024-01-15T03:06:14;99332.28;;;1.06;nan
37694;BME280;23531;50.122;8.644;2024-01-15T03:08:15;99332.16;;;0.69;nan
37694;BME280;23531;50.122;8.644;2024-01-15T03:10:16;99330.16;;;0.71;nan
37694;BME280;23531;50.122;8.644;2024-01-15T03:12:19;99328.38;;;0.24;nan
37694;BME280;23531;50.122;8.644;2024-01-15T03:14:20;99332.41;;;0.82;nan
37694;BME280;23531;50.122;8.644;2024-01-15T03:16:24;99323.34;;;0.46;nan
37694;BME280;23531;50.122;8.644;2024-01-15T03:18:26;99316.28;;;0.38;nan
37694;BME280;23531;50.122;8.644;2024-01-15T03:20:27;99322.28;;;0.63;nan
37694;BME280;23531;50.122;8.644;2024-01-15T03:22:28;99311.19;;;0.28;nan
37694;BME280;23531;50.122;8.644;2024-01-15T03:24:31;99314.34;;;0.63;nan
37694;BME280;23531;50.122;8.644;2024-01-15T03:26:33;99315.34;;;0.62;nan
37694;BME280;23531;50.122;8.644;2024-01-15T03:28:35;99311.31;;;0.74;nan
37694;BME280;23531;50.122;8.644;2024-01-15T03:30:37;99308.44;;;0.22;nan
37694;BME280;23531;50.122;8.644;2024-01-15T03:32:37;99313.13;;;-0.05;nan
37694;BME280;23531;50.122;8.644;2024-01-15T03:34:39;99312.97;;;-0.19;nan
37694;BME280;23531;50.122;8.644;2024-01-15T03:36:40;99313.28;;;-0.06;nan
37694;BME280;23531;50.122;8.644;2024-01-15T03:38:41;99318.53;;;0.02;nan
37694;BME280;23531;50.122;8.644;2024-01-15T03:40:43;99308.81;;;-0.06;nan
37694;BME280;23531;50.122;8.644;2024-01-15T03:42:44;99318.19;;;0.13;nan
37694;BME280;23531;50.122;8.644;2024-01-15T03:44:47;99322.00;;;0.11;nan
37694;BME280;23531;50.122;8.644;2024-01-15T03:46:48;99311.97;;;0.37;nan
37694;BME280;23531;50.122;8.644;2024-01-15T03:48:50;99312.13;;;0.44;nan
37694;BME280;23531;50.122;8.644;2024-01-15T03:50:50;99311.19;;;0.28;nan
37694;BME280;23531;50.122;8.644;2024-01-15T03:52:52;99303.03;;;-0.01;nan
37694;BME280;23531;50.122;8.644;2024-01-15T03:54:53;99297.69;;;0.15;nan
37694;BME280;23531;50.122;8.644;2024-01-15T03:56:54;99302.59;;;-0.13;nan
37694;BME280;23531;50.122;8.644;2024-01-15T03:58:56;99299.41;;;-0.08;nan
37694;BME280;23531;50.122;8.644;2024-01-15T04:00:59;99297.56;;;0.09;nan
37694;BME280;23531;50.122;8.644;2024-01-15T04:02:59;99298.75;;;-0.10;nan
37694;BME280;23531;50.122;8.644;2024-01-15T04:05:01;99309.50;;;-0.20;nan
37694;BME280;23531;50.122;8.644;2024-01-15T04:07:03;99303.72;;;-0.07;nan
37694;BME280;23531;50.122;8.644;2024-01-15T04:09:04;99305.88;;;-0.19;nan
37694;BME280;23531;50.122;8.644;2024-01-15T04:11:05;99299.09;;;-0.05;nan
37694;BME280;23531;50.122;8.644;2024-01-15T04:13:06;99298.03;;;0.51;nan
37694;BME280;23531;50.122;8.644;2024-01-15T04:15:08;99292.56;;;0.53;nan
37694;BME280;23531;50.122;8.644;2024-01-15T04:17:10;99291.09;;;0.50;nan
37694;BME280;23531;50.122;8.644;2024-01-15T04:19:11;99288.81;;;0.78;nan
37694;BME280;23531;50.122;8.644;2024-01-15T04:21:12;99292.91;;;1.03;nan
37694;BME280;23531;50.122;8.644;2024-01-15T04:23:14;99294.00;;;0.63;nan
37694;BME280;23531;50.122;8.644;2024-01-15T04:25:15;99282.44;;;0.64;nan
37694;BME280;23531;50.122;8.644;2024-01-15T04:27:17;99287.88;;;0.32;nan
37694;BME280;23531;50.122;8.644;2024-01-15T04:29:18;99290.31;;;0.42;nan
37694;BME280;23531;50.122;8.644;2024-01-15T04:31:23;99282.72;;;0.39;nan
37694;BME280;23531;50.122;8.644;2024-01-15T04:33:25;99280.56;;;0.42;nan
37694;BME280;23531;50.122;8.644;2024-01-15T04:35:27;99278.75;;;0.34;nan
37694;BME280;23531;50.122;8.644;2024-01-15T04:37:28;99284.53;;;0.38;nan
37694;BME280;23531;50.122;8.644;2024-01-15T04:39:29;99281.00;;;0.54;nan
37694;BME280;23531;50.122;8.644;2024-01-15T04:41:31;99288.72;;;0.24;nan
37694;BME280;23531;50.122;8.644;2024-01-15T04:43:32;99301.00;;;0.56;nan
37694;BME280;23531;50.122;8.644;2024-01-15T04:45:34;99295.44;;;0.74;nan
37694;BME280;23531;50.122;8.644;2024-01-15T04:47:35;99296.56;;;0.49;nan
37694;BME280;23531;50.122;8.644;2024-01-15T04:49:38;99299.81;;;0.59;nan
37694;BME280;23531;50.122;8.644;2024-01-15T04:51:39;99307.56;;;0.60;nan
37694;BME280;23531;50.122;8.644;2024-01-15T04:53:41;99308.13;;;0.48;nan
37694;BME280;23531;50.122;8.644;2024-01-15T04:55:42;99303.06;;;0.69;nan
37694;BME280;23531;50.122;8.644;2024-01-15T04:57:43;99309.16;;;0.78;nan
37694;BME280;23531;50.122;8.644;2024-01-15T04:59:44;99303.56;;;0.95;nan
37694;BME280;23531;50.122;8.644;2024-01-15T05:01:46;99293.28;;;0.78;nan
37694;BME280;23531;50.122;8.644;2024-01-15T05:03:47;99302.03;;;0.78;nan
37694;BME280;23531;50.122;8.644;2024-01-15T05:05:51;99290.09;;;0.82;nan
37694;BME280;23531;50.122;8.644;2024-01-15T05:07:51;99293.72;;;0.81;nan
37694;BME280;23531;50.122;8.644;2024-01-15T05:09:52;99285.97;;;0.80;nan
37694;BME280;23531;50.122;8.644;2024-01-15T05:11:54;99281.91;;;0.92;nan
37694;BME280;23531;50.122;8.644;2024-01-15T05:13:55;99282.03;;;0.76;nan
37694;BME280;23531;50.122;8.644;2024-01-15T05:15:57;99270.88;;;0.88;nan
37694;BME280;23531;50.122;8.644;2024-01-15T05:17:58;99269.41;;;1.08;nan
37694;BME280;23531;50.122;8.644;2024-01-15T05:19:59;99271.03;;;1.09;nan
37694;BME280;23531;50.122;8.644;2024-01-15T05:22:02;99266.19;;;1.13;nan
37694;BME280;23531;50.122;8.644;2024-01-15T05:24:03;99266.25;;;0.82;nan
37694;BME280;23531;50.122;8.644;2024-01-15T05:26:04;99273.22;;;1.06;nan
37694;BME280;23531;50.122;8.644;2024-01-15T05:28:06;99271.63;;;0.97;nan
37694;BME280;23531;50.122;8.644;2024-01-15T05:30:09;99267.66;;;1.16;nan
37694;BME280;23531;50.122;8.644;2024-01-15T05:32:10;99261.34;;;1.39;nan
37694;BME280;23531;50.122;8.644;2024-01-15T05:34:11;99262.25;;;1.32;nan
37694;BME280;23531;50.122;8.644;2024-01-15T05:36:13;99258.97;;;1.07;nan
37694;BME280;23531;50.122;8.644;2024-01-15T05:38:16;99269.22;;;0.87;nan
37694;BME280;23531;50.122;8.644;2024-01-15T05:40:17;99258.22;;;0.76;nan
37694;BME280;23531;50.122;8.644;2024-01-15T05:42:18;99271.63;;;0.74;nan
37694;BME280;23531;50.122;8.644;2024-01-15T05:44:19;99272.47;;;0.44;nan
37694;BME280;23531;50.122;8.644;2024-01-15T05:46:21;99275.50;;;0.24;nan
37694;BME280;23531;50.122;8.644;2024-01-15T05:48:22;99270.72;;;0.28;nan
37694;BME280;23531;50.122;8.644;2024-01-15T05:50:23;99268.41;;;0.25;nan
37694;BME280;23531;50.122;8.644;2024-01-15T05:52:25;99273.19;;;0.29;nan
37694;BME280;23531;50.122;8.644;2024-01-15T05:54:29;99272.84;;;0.32;nan
37694;BME280;23531;50.122;8.644;2024-01-15T05:56:30;99271.19;;;0.62;nan
37694;BME280;23531;50.122;8.644;2024-01-15T05:58:31;99259.28;;;0.66;nan
37694;BME280;23531;50.122;8.644;2024-01-15T06:00:33;99264.34;;;0.76;nan
37694;BME280;23531;50.122;8.644;2024-01-15T06:02:37;99259.22;;;0.97;nan
37694;BME280;23531;50.122;8.644;2024-01-15T06:04:38;99260.28;;;0.88;nan
37694;BME280;23531;50.122;8.644;2024-01-15T06:06:39;99260.22;;;0.73;nan
37694;BME280;23531;50.122;8.644;2024-01-15T06:08:41;99257.88;;;0.79;nan
37694;BME280;23531;50.122;8.644;2024-01-15T06:10:44;99253.25;;;0.50;nan
37694;BME280;23531;50.122;8.644;2024-01-15T06:12:45;99266.38;;;0.35;nan
37694;BME280;23531;50.122;8.644;2024-01-15T06:14:46;99268.03;;;0.36;nan
37694;BME280;23531;50.122;8.644;2024-01-15T06:16:48;99258.97;;;0.30;nan
37694;BME280;23531;50.122;8.644;2024-01-15T06:18:50;99268.16;;;0.43;nan
37694;BME280;23531;50.122;8.644;2024-01-15T06:20:51;99263.38;;;0.69;nan
37694;BME280;23531;50.122;8.644;2024-01-15T06:22:52;99265.88;;;0.40;nan
37694;BME280;23531;50.122;8.644;2024-01-15T06:24:53;99264.75;;;0.57;nan
37694;BME280;23531;50.122;8.644;2024-01-15T06:26:55;99265.97;;;0.54;nan
37694;BME280;23531;50.122;8.644;2024-01-15T06:28:57;99266.97;;;0.76;nan
37694;BME280;23531;50.122;8.644;2024-01-15T06:30:58;99275.59;;;0.70;nan
37694;BME280;23531;50.122;8.644;2024-01-15T06:33:00;99281.22;;;0.75;nan
37694;BME280;23531;50.122;8.644;2024-01-15T06:35:01;99280.44;;;0.66;nan
37694;BME280;23531;50.122;8.644;2024-01-15T06:37:03;99284.50;;;0.77;nan
37694;BME280;23531;50.122;8.644;2024-01-15T06:39:05;99282.72;;;0.39;nan
37694;BME280;23531;50.122;8.644;2024-01-15T06:41:06;99273.13;;;0.38;nan
37694;BME280;23531;50.122;8.644;2024-01-15T06:43:09;99277.38;;;0.55;nan
37694;BME280;23531;50.122;8.644;2024-01-15T06:45:10;99274.41;;;0.50;nan
37694;BME280;23531;50.122;8.644;2024-01-15T06:47:11;99277.47;;;0.61;nan
37694;BME280;23531;50.122;8.644;2024-01-15T06:49:14;99280.28;;;0.60;nan
37694;BME280;23531;50.122;8.644;2024-01-15T06:51:16;99273.50;;;0.65;nan
37694;BME280;23531;50.122;8.644;2024-01-15T06:53:18;99267.28;;;0.50;nan
37694;BME280;23531;50.122;8.644;2024-01-15T06:55:19;99265.16;;;0.77;nan
37694;BME280;23531;50.122;8.644;2024-01-15T06:57:21;99262.75;;;0.90;nan
37694;BME280;23531;50.122;8.644;2024-01-15T06:59:23;99260.88;;;0.98;nan
37694;BME280;23531;50.122;8.644;2024-01-15T07:01:25;99260.44;;;0.64;nan
37694;BME280;23531;50.122;8.644;2024-01-15T07:03:25;99252.31;;;0.43;nan
37694;BME280;23531;50.122;8.644;2024-01-15T07:05:27;99262.06;;;0.42;nan
37694;BME280;23531;50.122;8.644;2024-01-15T07:07:27;99266.41;;;0.58;nan
37694;BME280;23531;50.122;8.644;2024-01-15T07:09:29;99263.38;;;0.69;nan
37694;BME280;23531;50.122;8.644;2024-01-15T07:11:31;99263.75;;;0.58;nan
37694;BME280;23531;50.122;8.644;2024-01-15T07:13:32;99256.69;;;0.81;nan
37694;BME280;23531;50.122;8.644;2024-01-15T07:15:35;99250.84;;;0.63;nan
37694;BME280;23531;50.122;8.644;2024-01-15T07:17:37;99237.13;;;0.67;nan
37694;BME280;23531;50.122;8.644;2024-01-15T07:19:39;99249.03;;;0.63;nan
37694;BME280;23531;50.122;8.644;2024-01-15T07:21:40;99249.91;;;0.56;nan
37694;BME280;23531;50.122;8.644;2024-01-15T07:23:43;99255.84;;;0.58;nan
37694;BME280;23531;50.122;8.644;2024-01-15T07:25:44;99249.94;;;0.79;nan
37694;BME280;23531;50.122;8.644;2024-01-15T07:27:46;99254.34;;;0.86;nan
37694;BME280;23531;50.122;8.644;2024-01-15T07:29:47;99264.91;;;0.63;nan
37694;BME280;23531;50.122;8.644;2024-01-15T07:31:50;99259.38;;;0.73;nan
37694;BME280;23531;50.122;8.644;2024-01-15T07:33:52;99255.50;;;0.84;nan
37694;BME280;23531;50.122;8.644;2024-01-15T07:35:53;99261.09;;;0.89;nan
37694;BME280;23531;50.122;8.644;2024-01-15T07:37:55;99267.38;;;0.65;nan
37694;BME280;23531;50.122;8.644;2024-01-15T07:39:56;99263.63;;;0.82;nan
37694;BME280;23531;50.122;8.644;2024-01-15T07:41:58;99260.56;;;0.93;nan
37694;BME280;23531;50.122;8.644;2024-01-15T07:43:59;99271.91;;;0.79;nan
37694;BME280;23531;50.122;8.644;2024-01-15T07:46:01;99275.81;;;0.60;nan
37694;BME280;23531;50.122;8.644;2024-01-15T07:48:05;99273.34;;;0.67;nan
37694;BME280;23531;50.122;8.644;2024-01-15T07:50:07;99272.84;;;0.63;nan
37694;BME280;23531;50.122;8.644;2024-01-15T07:52:09;99262.88;;;0.96;nan
37694;BME280;23531;50.122;8.644;2024-01-15T07:54:13;99264.84;;;1.17;nan
37694;BME280;23531;50.122;8.644;2024-01-15T07:56:14;99266.97;;;1.22;nan
37694;BME280;23531;50.122;8.644;2024-01-15T07:58:16;99258.50;;;1.03;nan
37694;BME280;23531;50.122;8.644;2024-01-15T08:00:17;99253.75;;;1.22;nan
37694;BME280;23531;50.122;8.644;2024-01-15T08:02:19;99253.00;;;0.67;nan
37694;BME280;23531;50.122;8.644;2024-01-15T08:04:22;99240.97;;;0.26;nan
37694;BME280;23531;50.122;8.644;2024-01-15T08:06:23;99236.44;;;0.43;nan
37694;BME280;23531;50.122;8.644;2024-01-15T08:08:24;99233.63;;;0.05;nan
37694;BME280;23531;50.122;8.644;2024-01-15T08:10:26;99230.78;;;-0.32;nan
37694;BME280;23531;50.122;8.644;2024-01-15T08:12:26;99232.47;;;-0.40;nan
37694;BME280;23531;50.122;8.644;2024-01-15T08:14:28;99245.00;;;-0.25;nan
37694;BME280;23531;50.122;8.644;2024-01-15T08:16:29;99250.28;;;-0.33;nan
37694;BME280;23531;50.122;8.644;2024-01-15T08:18:30;99249.75;;;-0.13;nan
37694;BME280;23531;50.122;8.644;2024-01-15T08:20:33;99248.41;;;0.30;nan
37694;BME280;23531;50.122;8.644;2024-01-15T08:22:34;99250.44;;;0.12;nan
37694;BME280;23531;50.122;8.644;2024-01-15T08:24:36;99245.75;;;-0.01;nan
37694;BME280;23531;50.122;8.644;2024-01-15T08:26:37;99247.69;;;0.36;nan
37694;BME280;23531;50.122;8.644;2024-01-15T08:28:38;99245.16;;;0.12;nan
37694;BME280;23531;50.122;8.644;2024-01-15T08:30:40;99243.19;;;0.14;nan
37694;BME280;23531;50.122;8.644;2024-01-15T08:32:41;99251.22;;;0.29;nan
37694;BME280;23531;50.122;8.644;2024-01-15T08:34:43;99248.56;;;0.60;nan
37694;BME280;23531;50.122;8.644;2024-01-15T08:36:45;99238.97;;;0.59;nan
37694;BME280;23531;50.122;8.644;2024-01-15T08:38:47;99233.66;;;0.90;nan
37694;BME280;23531;50.122;8.644;2024-01-15T08:40:48;99235.06;;;1.00;nan
37694;BME280;23531;50.122;8.644;2024-01-15T08:42:50;99247.06;;;1.26;nan
37694;BME280;23531;50.122;8.644;2024-01-15T08:44:51;99244.28;;;1.42;nan
37694;BME280;23531;50.122;8.644;2024-01-15T08:46:52;99244.41;;;1.63;nan
37694;BME280;23531;50.122;8.644;2024-01-15T08:48:54;99242.38;;;1.65;nan
37694;BME280;23531;50.122;8.644;2024-01-15T08:50:55;99243.94;;;1.74;nan
37694;BME280;23531;50.122;8.644;2024-01-15T08:52:58;99246.41;;;1.76;nan
37694;BME280;23531;50.122;8.644;2024-01-15T08:54:59;99248.25;;;1.90;nan
37694;BME280;23531;50.122;8.644;2024-01-15T08:57:01;99241.28;;;2.04;nan
37694;BME280;23531;50.122;8.644;2024-01-15T08:59:02;99249.53;;;2.09;nan
37694;BME280;23531;50.122;8.644;2024-01-15T09:01:03;99249.63;;;2.01;nan
37694;BME280;23531;50.122;8.644;2024-01-15T09:03:04;99245.78;;;1.89;nan
37694;BME280;23531;50.122;8.644;2024-01-15T09:05:06;99253.06;;;1.72;nan
37694;BME280;23531;50.122;8.644;2024-01-15T09:07:08;99244.25;;;1.79;nan
37694;BME280;23531;50.122;8.644;2024-01-15T09:09:11;99249.53;;;1.65;nan
37694;BME280;23531;50.122;8.644;2024-01-15T09:11:11;99241.38;;;1.81;nan
37694;BME280;23531;50.122;8.644;2024-01-15T09:13:13;99251.44;;;1.56;nan
37694;BME280;23531;50.122;8.644;2024-01-15T09:15:13;99242.19;;;1.52;nan
37694;BME280;23531;50.122;8.644;2024-01-15T09:17:15;99235.59;;;1.48;nan
37694;BME280;23531;50.122;8.644;2024-01-15T09:19:16;99232.44;;;1.67;nan
37694;BME280;23531;50.122;8.644;2024-01-15T09:21:17;99238.28;;;1.63;nan
37694;BME280;23531;50.122;8.644;2024-01-15T09:23:18;99238.44;;;1.61;nan
37694;BME280;23531;50.122;8.644;2024-01-15T09:25:21;99236.19;;;1.73;nan
37694;BME280;23531;50.122;8.644;2024-01-15T09:27:22;99241.22;;;1.68;nan
37694;BME280;23531;50.122;8.644;2024-01-15T09:29:26;99241.94;;;1.91;nan
37694;BME280;23531;50.122;8.644;2024-01-15T09:31:27;99237.66;;;1.75;nan
37694;BME280;23531;50.122;8.644;2024-01-15T09:33:29;99235.63;;;1.92;nan
37694;BME280;23531;50.122;8.644;2024-01-15T09:35:29;99232.59;;;2.10;nan
37694;BME280;23531;50.122;8.644;2024-01-15T09:37:30;99230.84;;;2.17;nan
37694;BME280;23531;50.122;8.644;2024-01-15T09:39:32;99227.38;;;2.16;nan
37694;BME280;23531;50.122;8.644;2024-01-15T09:41:35;99234.06;;;2.12;nan
37694;BME280;23531;50.122;8.644;2024-01-15T09:43:37;99237.81;;;2.03;nan
37694;BME280;23531;50.122;8.644;2024-01-15T09:45:39;99234.72;;;2.00;nan
37694;BME280;23531;50.122;8.644;2024-01-15T09:47:41;99237.16;;;2.16;nan
37694;BME280;23531;50.122;8.644;2024-01-15T09:49:43;99240.34;;;2.26;nan
37694;BME280;23531;50.122;8.644;2024-01-15T09:51:45;99240.91;;;2.22;nan
37694;BME280;23531;50.122;8.644;2024-01-15T09:53:46;99243.38;;;2.23;nan
37694;BME280;23531;50.122;8.644;2024-01-15T09:55:49;99236.69;;;2.27;nan
37694;BME280;23531;50.122;8.644;2024-01-15T09:57:53;99229.03;;;2.17;nan
37694;BME280;23531;50.122;8.644;2024-01-15T09:59:57;99221.94;;;2.39;nan
37694;BME280;23531;50.122;8.644;2024-01-15T10:02:01;99213.34;;;2.37;nan
37694;BME280;23531;50.122;8.644;2024-01-15T10:04:03;99198.00;;;2.33;nan
37694;BME280;23531;50.122;8.644;2024-01-15T10:06:05;99200.34;;;2.42;nan
37694;BME280;23531;50.122;8.644;2024-01-15T10:08:08;99198.84;;;2.54;nan
37694;BME280;23531;50.122;8.644;2024-01-15T10:10:11;99186.59;;;2.75;nan
37694;BME280;23531;50.122;8.644;2024-01-15T10:12:13;99189.75;;;2.85;nan
37694;BME280;23531;50.122;8.644;2024-01-15T10:14:16;99186.66;;;2.81;nan
37694;BME280;23531;50.122;8.644;2024-01-15T10:16:17;99204.03;;;2.63;nan
37694;BME280;23531;50.122;8.644;2024-01-15T10:18:19;99195.81;;;2.79;nan
37694;BME280;23531;50.122;8.644;2024-01-15T10:20:20;99192.22;;;2.86;nan
37694;BME280;23531;50.122;8.644;2024-01-15T10:22:23;99190.19;;;2.88;nan
37694;BME280;23531;50.122;8.644;2024-01-15T10:24:24;99190.94;;;2.82;nan
37694;BME280;23531;50.122;8.644;2024-01-15T10:26:26;99192.03;;;2.88;nan
37694;BME280;23531;50.122;8.644;2024-01-15T10:28:28;99198.34;;;2.87;nan
37694;BME280;23531;50.122;8.644;2024-01-15T10:30:32;99193.66;;;2.89;nan
37694;BME280;23531;50.122;8.644;2024-01-15T10:32:33;99188.00;;;2.71;nan
37694;BME280;23531;50.122;8.644;2024-01-15T10:34:37;99190.75;;;2.84;nan
37694;BME280;23531;50.122;8.644;2024-01-15T10:36:41;99185.38;;;2.99;nan
37694;BME280;23531;50.122;8.644;2024-01-15T10:38:43;99192.00;;;3.09;nan
37694;BME280;23531;50.122;8.644;2024-01-15T10:40:43;99181.53;;;3.01;nan
37694;BME280;23531;50.122;8.644;2024-01-15T10:42:45;99185.84;;;2.60;nan
37694;BME280;23531;50.122;8.644;2024-01-15T10:44:47;99179.19;;;2.49;nan
37694;BME280;23531;50.122;8.644;2024-01-15T10:46:50;99169.84;;;2.53;nan
37694;BME280;23531;50.122;8.644;2024-01-15T10:48:52;99180.41;;;2.46;nan
37694;BME280;23531;50.122;8.644;2024-01-15T10:50:54;99167.88;;;2.62;nan
37694;BME280;23531;50.122;8.644;2024-01-15T10:52:56;99171.53;;;2.39;nan
37694;BME280;23531;50.122;8.644;2024-01-15T10:54:57;99177.09;;;2.44;nan
37694;BME280;23531;50.122;8.644;2024-01-15T10:57:00;99172.25;;;2.69;nan
37694;BME280;23531;50.122;8.644;2024-01-15T10:59:03;99174.81;;;2.84;nan
37694;BME280;23531;50.122;8.644;2024-01-15T11:01:04;99159.50;;;2.79;nan
37694;BME280;23531;50.122;8.644;2024-01-15T11:03:07;99153.41;;;2.64;nan
37694;BME280;23531;50.122;8.644;2024-01-15T11:05:09;99154.22;;;2.86;nan
37694;BME280;23531;50.122;8.644;2024-01-15T11:07:10;99151.53;;;3.07;nan
37694;BME280;23531;50.122;8.644;2024-01-15T11:09:12;99141.13;;;2.84;nan
37694;BME280;23531;50.122;8.644;2024-01-15T11:11:13;99141.22;;;2.70;nan